sensor_id;sensor_type;location;lat;lon;timestamp;pressure;altitude;pressure_sealevel;temperature;humidity
8049;BME280;20935;42.660;23.342;2023-07-13T00:02:27;95033.50;;;28.65;64.10
8049;BME280;20935;42.660;23.342;2023-07-13T00:05:13;95029.25;;;28.64;64.10
8049;BME280;20935;42.660;23.342;2023-07-13T00:07:58;95026.47;;;28.64;64.18
8049;BME280;20935;42.660;23.342;2023-07-13T00:10:44;95034.75;;;28.64;64.21
8049;BME280;20935;42.660;23.342;2023-07-13T00:13:31;95023.97;;;28.66;64.19
8049;BME280;20935;42.660;23.342;2023-07-13T00:16:17;95029.50;;;28.66;64.15
8049;BME280;20935;42.660;23.342;2023-07-13T00:19:03;95029.50;;;28.66;63.70
8049;BME280;20935;42.660;23.342;2023-07-13T00:21:48;95021.72;;;28.64;64.13
8049;BME280;20935;42.660;23.342;2023-07-13T00:24:34;95016.97;;;28.65;63.92
8049;BME280;20935;42.660;23.342;2023-07-13T00:27:20;95016.97;;;28.65;63.97
8049;BME280;20935;42.660;23.342;2023-07-13T00:30:07;95013.44;;;28.64;63.99
8049;BME280;20935;42.660;23.342;2023-07-13T00:32:54;95017.72;;;28.65;64.07
8049;BME280;20935;42.660;23.342;2023-07-13T00:35:39;95010.19;;;28.66;63.82
8049;BME280;20935;42.660;23.342;2023-07-13T00:38:28;95013.44;;;28.64;63.61
8049;BME280;20935;42.660;23.342;2023-07-13T00:41:13;95009.44;;;28.65;63.85
8049;BME280;20935;42.660;23.342;2023-07-13T00:43:59;95023.22;;;28.65;63.82
8049;BME280;20935;42.660;23.342;2023-07-13T00:46:46;95018.47;;;28.66;63.88
8049;BME280;20935;42.660;23.342;2023-07-13T00:49:33;95024.97;;;28.63;64.12
8049;BME280;20935;42.660;23.342;2023-07-13T00:52:20;95017.97;;;28.62;63.91
8049;BME280;20935;42.660;23.342;2023-07-13T00:55:07;95010.94;;;28.61;63.78
8049;BME280;20935;42.660;23.342;2023-07-13T00:57:54;95012.47;;;28.62;63.64
8049;BME280;20935;42.660;23.342;2023-07-13T01:00:40;95017.22;;;28.61;63.64
8049;BME280;20935;42.660;23.342;2023-07-13T01:03:27;95016.47;;;28.61;63.82
8049;BME280;20935;42.660;23.342;2023-07-13T01:06:13;95016.47;;;28.61;63.44
8049;BME280;20935;42.660;23.342;2023-07-13T01:08:58;95016.47;;;28.61;63.95
8049;BME280;20935;42.660;23.342;2023-07-13T01:11:44;95000.69;;;28.61;63.58
8049;BME280;20935;42.660;23.342;2023-07-13T01:14:31;95004.69;;;28.60;63.64
8049;BME280;20935;42.660;23.342;2023-07-13T01:17:16;95001.19;;;28.60;63.91
8049;BME280;20935;42.660;23.342;2023-07-13T01:20:04;95008.19;;;28.61;63.47
8049;BME280;20935;42.660;23.342;2023-07-13T01:22:51;95001.19;;;28.60;63.55
8049;BME280;20935;42.660;23.342;2023-07-13T01:25:37;94999.66;;;28.59;63.93
8049;BME280;20935;42.660;23.342;2023-07-13T01:28:24;94998.41;;;28.60;63.64
8049;BME280;20935;42.660;23.342;2023-07-13T01:31:11;95005.94;;;28.59;63.43
8049;BME280;20935;42.660;23.342;2023-07-13T01:33:56;94999.94;;;28.61;63.67
8049;BME280;20935;42.660;23.342;2023-07-13T01:36:42;95004.19;;;28.62;63.37
8049;BME280;20935;42.660;23.342;2023-07-13T01:39:29;95012.47;;;28.62;63.83
8049;BME280;20935;42.660;23.342;2023-07-13T01:42:15;95008.94;;;28.61;63.38
8049;BME280;20935;42.660;23.342;2023-07-13T01:45:01;95003.44;;;28.61;63.35
8049;BME280;20935;42.660;23.342;2023-07-13T01:47:47;95002.69;;;28.61;63.55
8049;BME280;20935;42.660;23.342;2023-07-13T01:50:32;95002.69;;;28.61;63.71
8049;BME280;20935;42.660;23.342;2023-07-13T01:53:18;94999.94;;;28.61;63.22
8049;BME280;20935;42.660;23.342;2023-07-13T01:56:06;94999.94;;;28.61;63.81
8049;BME280;20935;42.660;23.342;2023-07-13T01:58:51;94994.41;;;28.61;63.33
8049;BME280;20935;42.660;23.342;2023-07-13T02:01:37;94994.41;;;28.61;63.15
8049;BME280;20935;42.660;23.342;2023-07-13T02:04:22;94999.16;;;28.60;63.46
8049;BME280;20935;42.660;23.342;2023-07-13T02:07:08;95001.94;;;28.60;63.42
8049;BME280;20935;42.660;23.342;2023-07-13T02:09:54;95003.94;;;28.60;63.46
8049;BME280;20935;42.660;23.342;2023-07-13T02:12:41;95001.19;;;28.60;63.31
8049;BME280;20935;42.660;23.342;2023-07-13T02:15:27;95003.19;;;28.59;63.80
8049;BME280;20935;42.660;23.342;2023-07-13T02:18:12;95009.44;;;28.60;63.30
8049;BME280;20935;42.660;23.342;2023-07-13T02:21:00;95007.22;;;28.58;63.57
8049;BME280;20935;42.660;23.342;2023-07-13T02:23:46;95009.44;;;28.60;63.56
8049;BME280;20935;42.660;23.342;2023-07-13T02:26:32;95007.94;;;28.59;63.54
8049;BME280;20935;42.660;23.342;2023-07-13T02:29:19;95010.69;;;28.59;63.32
8049;BME280;20935;42.660;23.342;2023-07-13T02:32:05;95013.44;;;28.59;63.49
8049;BME280;20935;42.660;23.342;2023-07-13T02:34:50;95017.72;;;28.60;63.64
8049;BME280;20935;42.660;23.342;2023-07-13T02:37:36;95016.22;;;28.59;63.58
8049;BME280;20935;42.660;23.342;2023-07-13T02:40:22;95021.72;;;28.59;63.14
8049;BME280;20935;42.660;23.342;2023-07-13T02:43:08;95011.97;;;28.58;63.56
8049;BME280;20935;42.660;23.342;2023-07-13T02:45:54;95009.22;;;28.58;63.20
8049;BME280;20935;42.660;23.342;2023-07-13T02:48:40;95013.44;;;28.59;63.62
8049;BME280;20935;42.660;23.342;2023-07-13T02:51:25;95012.72;;;28.58;63.70
8049;BME280;20935;42.660;23.342;2023-07-13T02:54:11;95017.47;;;28.58;63.63
8049;BME280;20935;42.660;23.342;2023-07-13T02:56:57;95014.72;;;28.58;63.42
8049;BME280;20935;42.660;23.342;2023-07-13T02:59:43;95012.72;;;28.58;63.53
8049;BME280;20935;42.660;23.342;2023-07-13T03:02:30;95011.97;;;28.58;63.45
8049;BME280;20935;42.660;23.342;2023-07-13T03:05:16;95023.75;;;28.58;63.25
8049;BME280;20935;42.660;23.342;2023-07-13T03:08:01;95016.72;;;28.57;63.09
8049;BME280;20935;42.660;23.342;2023-07-13T03:10:48;95019.47;;;28.57;63.59
8049;BME280;20935;42.660;23.342;2023-07-13T03:13:33;95023.75;;;28.58;63.20
8049;BME280;20935;42.660;23.342;2023-07-13T03:16:19;95024.47;;;28.59;63.27
8049;BME280;20935;42.660;23.342;2023-07-13T03:19:06;95023.75;;;28.58;63.11
8049;BME280;20935;42.660;23.342;2023-07-13T03:21:51;95031.25;;;28.58;63.41
8049;BME280;20935;42.660;23.342;2023-07-13T03:24:37;95033.28;;;28.57;63.38
8049;BME280;20935;42.660;23.342;2023-07-13T03:27:23;95026.25;;;28.56;63.41
8049;BME280;20935;42.660;23.342;2023-07-13T03:30:09;95024.25;;;28.57;63.50
8049;BME280;20935;42.660;23.342;2023-07-13T03:32:54;95033.28;;;28.57;63.38
8049;BME280;20935;42.660;23.342;2023-07-13T03:35:41;95038.78;;;28.57;63.14
8049;BME280;20935;42.660;23.342;2023-07-13T03:38:27;95039.53;;;28.58;63.46
8049;BME280;20935;42.660;23.342;2023-07-13T03:41:12;95039.78;;;28.54;63.51
8049;BME280;20935;42.660;23.342;2023-07-13T03:43:58;95039.03;;;28.54;63.52
8049;BME280;20935;42.660;23.342;2023-07-13T03:46:44;95032.78;;;28.53;63.56
8049;BME280;20935;42.660;23.342;2023-07-13T03:49:29;95037.53;;;28.53;63.21
8049;BME280;20935;42.660;23.342;2023-07-13T03:52:16;95032.03;;;28.53;63.11
8049;BME280;20935;42.660;23.342;2023-07-13T03:55:01;95034.78;;;28.53;62.91
8049;BME280;20935;42.660;23.342;2023-07-13T03:57:47;95037.53;;;28.53;63.09
8049;BME280;20935;42.660;23.342;2023-07-13T04:00:32;95034.78;;;28.53;63.29
8049;BME280;20935;42.660;23.342;2023-07-13T04:03:18;95036.03;;;28.52;63.56
8049;BME280;20935;42.660;23.342;2023-07-13T04:06:07;95043.03;;;28.53;63.67
8049;BME280;20935;42.660;23.342;2023-07-13T04:08:56;95030.50;;;28.52;63.52
8049;BME280;20935;42.660;23.342;2023-07-13T04:11:42;95030.50;;;28.52;63.29
8049;BME280;20935;42.660;23.342;2023-07-13T04:14:27;95027.00;;;28.51;63.14
8049;BME280;20935;42.660;23.342;2023-07-13T04:17:12;95030.50;;;28.52;63.55
8049;BME280;20935;42.660;23.342;2023-07-13T04:19:58;95034.03;;;28.52;63.31
8049;BME280;20935;42.660;23.342;2023-07-13T04:22:43;95038.03;;;28.51;63.15
8049;BME280;20935;42.660;23.342;2023-07-13T04:25:30;95039.53;;;28.52;63.51
8049;BME280;20935;42.660;23.342;2023-07-13T04:28:16;95045.81;;;28.53;63.52
8049;BME280;20935;42.660;23.342;2023-07-13T04:31:02;95058.84;;;28.52;63.30
8049;BME280;20935;42.660;23.342;2023-07-13T04:33:47;95045.81;;;28.53;63.09
8049;BME280;20935;42.660;23.342;2023-07-13T04:36:32;95045.81;;;28.53;63.21
8049;BME280;20935;42.660;23.342;2023-07-13T04:39:21;95047.31;;;28.54;63.11
8049;BME280;20935;42.660;23.342;2023-07-13T04:42:08;95051.31;;;28.53;63.12
8049;BME280;20935;42.660;23.342;2023-07-13T04:44:54;95052.06;;;28.53;63.52
8049;BME280;20935;42.660;23.342;2023-07-13T04:47:39;95047.81;;;28.52;62.92
8049;BME280;20935;42.660;23.342;2023-07-13T04:50:25;95054.84;;;28.53;62.97
8049;BME280;20935;42.660;23.342;2023-07-13T04:53:10;95054.06;;;28.53;62.82
8049;BME280;20935;42.660;23.342;2023-07-13T04:55:56;95072.13;;;28.54;62.77
8049;BME280;20935;42.660;23.342;2023-07-13T04:58:43;95071.38;;;28.53;63.18
8049;BME280;20935;42.660;23.342;2023-07-13T05:01:29;95076.38;;;28.55;63.38
8049;BME280;20935;42.660;23.342;2023-07-13T05:04:14;95066.63;;;28.54;63.00
8049;BME280;20935;42.660;23.342;2023-07-13T05:07:00;95069.38;;;28.54;63.20
8049;BME280;20935;42.660;23.342;2023-07-13T05:09:45;95075.63;;;28.54;62.86
8049;BME280;20935;42.660;23.342;2023-07-13T05:12:31;95070.84;;;28.55;62.89
8049;BME280;20935;42.660;23.342;2023-07-13T05:15:21;95072.88;;;28.54;62.85
8049;BME280;20935;42.660;23.342;2023-07-13T05:18:06;95075.63;;;28.54;63.12
8049;BME280;20935;42.660;23.342;2023-07-13T05:20:59;95089.44;;;28.54;63.20
8049;BME280;20935;42.660;23.342;2023-07-13T05:23:45;95078.41;;;28.54;63.01
8049;BME280;20935;42.660;23.342;2023-07-13T05:26:30;95084.41;;;28.58;62.82
8049;BME280;20935;42.660;23.342;2023-07-13T05:29:16;95080.13;;;28.57;62.99
8049;BME280;20935;42.660;23.342;2023-07-13T05:32:03;95082.38;;;28.59;63.15
8049;BME280;20935;42.660;23.342;2023-07-13T05:34:49;95083.13;;;28.59;62.67
8049;BME280;20935;42.660;23.342;2023-07-13T05:37:34;95082.38;;;28.59;62.81
8049;BME280;20935;42.660;23.342;2023-07-13T05:40:20;95082.38;;;28.59;62.64
8049;BME280;20935;42.660;23.342;2023-07-13T05:43:05;95087.41;;;28.60;63.01
8049;BME280;20935;42.660;23.342;2023-07-13T05:45:52;95088.16;;;28.61;62.58
8049;BME280;20935;42.660;23.342;2023-07-13T05:48:40;95088.91;;;28.61;62.74
8049;BME280;20935;42.660;23.342;2023-07-13T05:51:26;95092.41;;;28.62;62.67
8049;BME280;20935;42.660;23.342;2023-07-13T05:54:11;95081.41;;;28.62;62.70
8049;BME280;20935;42.660;23.342;2023-07-13T05:56:57;95080.91;;;28.58;62.89
8049;BME280;20935;42.660;23.342;2023-07-13T05:59:42;95084.16;;;28.62;62.85
8049;BME280;20935;42.660;23.342;2023-07-13T06:02:28;95084.16;;;28.62;62.70
8049;BME280;20935;42.660;23.342;2023-07-13T06:05:14;95073.13;;;28.62;62.92
8049;BME280;20935;42.660;23.342;2023-07-13T06:08:00;95067.09;;;28.58;63.13
8049;BME280;20935;42.660;23.342;2023-07-13T06:10:46;95063.59;;;28.57;63.09
8049;BME280;20935;42.660;23.342;2023-07-13T06:13:31;95070.63;;;28.58;63.36
8049;BME280;20935;42.660;23.342;2023-07-13T06:16:17;95082.16;;;28.57;62.84
8049;BME280;20935;42.660;23.342;2023-07-13T06:19:02;95080.13;;;28.57;63.37
8049;BME280;20935;42.660;23.342;2023-07-13T06:21:49;95079.38;;;28.57;63.05
8049;BME280;20935;42.660;23.342;2023-07-13T06:24:34;95078.63;;;28.56;63.00
8049;BME280;20935;42.660;23.342;2023-07-13T06:27:20;95080.13;;;28.57;63.08
8049;BME280;20935;42.660;23.342;2023-07-13T06:30:06;95085.66;;;28.57;62.89
8049;BME280;20935;42.660;23.342;2023-07-13T06:32:52;95087.66;;;28.57;62.72
8049;BME280;20935;42.660;23.342;2023-07-13T06:35:38;95072.63;;;28.58;62.82
8049;BME280;20935;42.660;23.342;2023-07-13T06:38:25;95078.91;;;28.58;62.71
8049;BME280;20935;42.660;23.342;2023-07-13T06:41:10;95077.63;;;28.59;63.23
8049;BME280;20935;42.660;23.342;2023-07-13T06:43:55;95072.09;;;28.59;62.58
8049;BME280;20935;42.660;23.342;2023-07-13T06:46:41;95073.63;;;28.60;63.02
8049;BME280;20935;42.660;23.342;2023-07-13T06:49:26;95072.84;;;28.60;63.10
8049;BME280;20935;42.660;23.342;2023-07-13T06:52:12;95070.09;;;28.60;63.43
8049;BME280;20935;42.660;23.342;2023-07-13T06:54:58;95067.34;;;28.60;62.89
8049;BME280;20935;42.660;23.342;2023-07-13T06:57:44;95072.38;;;28.61;62.93
8049;BME280;20935;42.660;23.342;2023-07-13T07:00:30;95074.88;;;28.59;63.12
8049;BME280;20935;42.660;23.342;2023-07-13T07:03:16;95069.59;;;28.61;63.27
8049;BME280;20935;42.660;23.342;2023-07-13T07:06:03;95078.63;;;28.62;63.03
8049;BME280;20935;42.660;23.342;2023-07-13T07:08:52;95073.13;;;28.62;62.92
8049;BME280;20935;42.660;23.342;2023-07-13T07:11:39;95073.13;;;28.62;62.56
8049;BME280;20935;42.660;23.342;2023-07-13T07:14:24;95072.59;;;28.63;63.13
8049;BME280;20935;42.660;23.342;2023-07-13T07:17:10;95070.38;;;28.62;63.06
8049;BME280;20935;42.660;23.342;2023-07-13T07:19:55;95069.09;;;28.63;63.18
8049;BME280;20935;42.660;23.342;2023-07-13T07:22:40;95074.59;;;28.63;63.20
8049;BME280;20935;42.660;23.342;2023-07-13T07:25:26;95062.84;;;28.62;63.28
8049;BME280;20935;42.660;23.342;2023-07-13T07:28:17;95066.34;;;28.63;63.19
8049;BME280;20935;42.660;23.342;2023-07-13T07:31:03;95066.34;;;28.63;62.71
8049;BME280;20935;42.660;23.342;2023-07-13T07:33:48;95060.09;;;28.62;63.19
8049;BME280;20935;42.660;23.342;2023-07-13T07:36:34;95060.09;;;28.62;62.99
8049;BME280;20935;42.660;23.342;2023-07-13T07:39:20;95059.56;;;28.64;62.96
8049;BME280;20935;42.660;23.342;2023-07-13T07:42:06;95059.56;;;28.64;62.92
8049;BME280;20935;42.660;23.342;2023-07-13T07:44:53;95053.78;;;28.67;62.74
8049;BME280;20935;42.660;23.342;2023-07-13T07:47:38;95049.78;;;28.68;63.03
8049;BME280;20935;42.660;23.342;2023-07-13T07:50:23;95046.56;;;28.70;62.94
8049;BME280;20935;42.660;23.342;2023-07-13T07:53:10;95048.56;;;28.69;62.70
8049;BME280;20935;42.660;23.342;2023-07-13T07:55:56;95050.81;;;28.71;63.00
8049;BME280;20935;42.660;23.342;2023-07-13T07:58:42;95043.53;;;28.68;63.27
8049;BME280;20935;42.660;23.342;2023-07-13T08:01:29;95036.50;;;28.67;63.23
8049;BME280;20935;42.660;23.342;2023-07-13T08:04:15;95036.50;;;28.67;63.25
8049;BME280;20935;42.660;23.342;2023-07-13T08:07:00;95026.22;;;28.67;63.08
8049;BME280;20935;42.660;23.342;2023-07-13T08:09:47;95030.47;;;28.68;63.42
8049;BME280;20935;42.660;23.342;2023-07-13T08:12:36;95019.44;;;28.68;63.40
8049;BME280;20935;42.660;23.342;2023-07-13T08:15:22;95021.00;;;28.69;63.24
8049;BME280;20935;42.660;23.342;2023-07-13T08:18:08;95020.25;;;28.69;63.28
8049;BME280;20935;42.660;23.342;2023-07-13T08:20:54;95017.47;;;28.69;63.19
8049;BME280;20935;42.660;23.342;2023-07-13T08:23:41;95007.97;;;28.70;63.25
8049;BME280;20935;42.660;23.342;2023-07-13T08:26:26;95013.47;;;28.70;63.54
8049;BME280;20935;42.660;23.342;2023-07-13T08:29:12;95009.44;;;28.71;63.29
8049;BME280;20935;42.660;23.342;2023-07-13T08:31:57;95005.44;;;28.72;63.03
8049;BME280;20935;42.660;23.342;2023-07-13T08:34:44;95004.69;;;28.71;63.19
8049;BME280;20935;42.660;23.342;2023-07-13T08:37:30;95005.69;;;28.74;63.24
8049;BME280;20935;42.660;23.342;2023-07-13T08:40:25;94997.41;;;28.74;63.24
8049;BME280;20935;42.660;23.342;2023-07-13T08:43:18;95000.94;;;28.74;63.38
8049;BME280;20935;42.660;23.342;2023-07-13T08:46:09;94993.38;;;28.75;63.47
8049;BME280;20935;42.660;23.342;2023-07-13T08:48:58;94991.38;;;28.75;63.15
8049;BME280;20935;42.660;23.342;2023-07-13T08:51:50;94992.13;;;28.76;63.46
8049;BME280;20935;42.660;23.342;2023-07-13T08:54:37;95001.91;;;28.77;63.13
8049;BME280;20935;42.660;23.342;2023-07-13T08:57:27;95001.91;;;28.77;63.76
8049;BME280;20935;42.660;23.342;2023-07-13T09:00:17;95006.94;;;28.78;63.21
8049;BME280;20935;42.660;23.342;2023-07-13T09:03:02;95013.19;;;28.79;63.53
8049;BME280;20935;42.660;23.342;2023-07-13T09:05:52;95011.19;;;28.79;63.49
8049;BME280;20935;42.660;23.342;2023-07-13T09:08:50;95023.72;;;28.80;63.54
8049;BME280;20935;42.660;23.342;2023-07-13T09:11:46;95030.47;;;28.79;63.51
8049;BME280;20935;42.660;23.342;2023-07-13T09:14:42;95023.72;;;28.80;63.67
8049;BME280;20935;42.660;23.342;2023-07-13T09:17:32;95029.97;;;28.81;63.29
8049;BME280;20935;42.660;23.342;2023-07-13T09:20:23;95027.97;;;28.81;63.64
8049;BME280;20935;42.660;23.342;2023-07-13T09:23:14;95018.94;;;28.81;63.52
8049;BME280;20935;42.660;23.342;2023-07-13T09:26:05;95021.44;;;28.84;63.52
8049;BME280;20935;42.660;23.342;2023-07-13T09:28:54;95031.22;;;28.85;63.27
8049;BME280;20935;42.660;23.342;2023-07-13T09:31:45;95021.69;;;28.86;63.29
8049;BME280;20935;42.660;23.342;2023-07-13T09:34:34;95024.44;;;28.86;63.49
8049;BME280;20935;42.660;23.342;2023-07-13T09:37:20;95025.72;;;28.85;63.28
8049;BME280;20935;42.660;23.342;2023-07-13T09:40:23;95022.44;;;28.87;63.10
8049;BME280;20935;42.660;23.342;2023-07-13T09:43:14;95013.66;;;28.88;63.02
8049;BME280;20935;42.660;23.342;2023-07-13T09:46:00;95017.19;;;28.89;63.37
8049;BME280;20935;42.660;23.342;2023-07-13T09:48:46;95014.41;;;28.89;63.76
8049;BME280;20935;42.660;23.342;2023-07-13T09:51:33;95006.13;;;28.89;63.35
8049;BME280;20935;42.660;23.342;2023-07-13T09:54:20;95000.84;;;28.91;63.63
8049;BME280;20935;42.660;23.342;2023-07-13T09:57:13;94991.31;;;28.92;63.45
8049;BME280;20935;42.660;23.342;2023-07-13T10:00:01;94989.06;;;28.90;63.37
8049;BME280;20935;42.660;23.342;2023-07-13T10:02:58;94988.06;;;28.93;63.30
8049;BME280;20935;42.660;23.342;2023-07-13T10:05:45;94982.28;;;28.91;63.69
8049;BME280;20935;42.660;23.342;2023-07-13T10:08:35;94981.03;;;28.92;63.76
8049;BME280;20935;42.660;23.342;2023-07-13T10:11:23;94976.28;;;28.93;63.57
8049;BME280;20935;42.660;23.342;2023-07-13T10:14:12;94977.78;;;28.94;63.21
8049;BME280;20935;42.660;23.342;2023-07-13T10:17:00;94973.75;;;28.95;63.77
8049;BME280;20935;42.660;23.342;2023-07-13T10:19:47;94972.50;;;28.96;63.60
8049;BME280;20935;42.660;23.342;2023-07-13T10:22:37;94973.75;;;28.95;63.79
8049;BME280;20935;42.660;23.342;2023-07-13T10:25:26;94970.75;;;28.93;63.68
8049;BME280;20935;42.660;23.342;2023-07-13T10:28:28;94973.75;;;28.95;63.92
8049;BME280;20935;42.660;23.342;2023-07-13T10:31:16;94961.25;;;28.94;63.78
8049;BME280;20935;42.660;23.342;2023-07-13T10:34:03;94952.44;;;28.96;63.61
8049;BME280;20935;42.660;23.342;2023-07-13T10:36:49;94953.19;;;28.96;63.89
8049;BME280;20935;42.660;23.342;2023-07-13T10:39:35;94949.94;;;28.98;63.98
8049;BME280;20935;42.660;23.342;2023-07-13T10:42:26;94938.38;;;28.99;63.56
8049;BME280;20935;42.660;23.342;2023-07-13T10:45:14;94943.41;;;29.01;63.33
8049;BME280;20935;42.660;23.342;2023-07-13T10:48:01;94937.88;;;29.01;63.66
8049;BME280;20935;42.660;23.342;2023-07-13T10:50:50;94931.09;;;29.02;63.66
8049;BME280;20935;42.660;23.342;2023-07-13T10:53:38;94929.31;;;29.04;63.78
8049;BME280;20935;42.660;23.342;2023-07-13T10:56:28;94920.03;;;29.07;63.74
8049;BME280;20935;42.660;23.342;2023-07-13T10:59:18;94916.00;;;29.08;63.12
8049;BME280;20935;42.660;23.342;2023-07-13T11:02:13;94912.00;;;29.09;63.03
8049;BME280;20935;42.660;23.342;2023-07-13T11:05:14;94913.50;;;29.10;63.27
8049;BME280;20935;42.660;23.342;2023-07-13T11:08:20;94905.22;;;29.10;63.11
8049;BME280;20935;42.660;23.342;2023-07-13T11:11:35;94904.94;;;29.14;63.25
8049;BME280;20935;42.660;23.342;2023-07-13T11:14:28;94894.63;;;29.14;63.29
8049;BME280;20935;42.660;23.342;2023-07-13T11:17:35;94891.38;;;29.16;62.89
8049;BME280;20935;42.660;23.342;2023-07-13T11:20:24;94883.84;;;29.16;62.83
8049;BME280;20935;42.660;23.342;2023-07-13T11:23:28;94882.59;;;29.17;62.96
8049;BME280;20935;42.660;23.342;2023-07-13T11:26:40;94879.31;;;29.19;63.02
8049;BME280;20935;42.660;23.342;2023-07-13T11:29:33;94890.34;;;29.19;63.03
8049;BME280;20935;42.660;23.342;2023-07-13T11:32:23;94883.84;;;29.16;62.81
8049;BME280;20935;42.660;23.342;2023-07-13T11:35:13;94884.59;;;29.17;62.71
8049;BME280;20935;42.660;23.342;2023-07-13T11:38:01;94880.59;;;29.18;63.00
8049;BME280;20935;42.660;23.342;2023-07-13T11:40:52;94876.56;;;29.19;63.00
8049;BME280;20935;42.660;23.342;2023-07-13T11:43:38;94873.78;;;29.19;63.03
8049;BME280;20935;42.660;23.342;2023-07-13T11:46:25;94869.28;;;29.21;63.24
8049;BME280;20935;42.660;23.342;2023-07-13T11:49:15;94870.03;;;29.22;63.08
8049;BME280;20935;42.660;23.342;2023-07-13T11:52:01;94881.78;;;29.22;63.01
8049;BME280;20935;42.660;23.342;2023-07-13T11:54:49;94862.72;;;29.24;62.63
8049;BME280;20935;42.660;23.342;2023-07-13T11:57:45;94864.97;;;29.26;63.08
8049;BME280;20935;42.660;23.342;2023-07-13T12:00:32;94861.69;;;29.27;62.82
8049;BME280;20935;42.660;23.342;2023-07-13T12:03:21;94851.44;;;29.28;63.08
8049;BME280;20935;42.660;23.342;2023-07-13T12:06:23;94853.91;;;29.31;62.92
8049;BME280;20935;42.660;23.342;2023-07-13T12:09:11;94847.88;;;29.33;62.70
8049;BME280;20935;42.660;23.342;2023-07-13T12:11:58;94838.09;;;29.32;62.65
8049;BME280;20935;42.660;23.342;2023-07-13T12:14:50;94838.84;;;29.32;62.56
8049;BME280;20935;42.660;23.342;2023-07-13T12:17:36;94838.34;;;29.34;62.64
8049;BME280;20935;42.660;23.342;2023-07-13T12:20:25;94838.34;;;29.34;62.73
8049;BME280;20935;42.660;23.342;2023-07-13T12:23:21;94830.78;;;29.34;62.61
8049;BME280;20935;42.660;23.342;2023-07-13T12:26:09;94824.03;;;29.35;62.63
8049;BME280;20935;42.660;23.342;2023-07-13T12:28:59;94824.78;;;29.36;62.90
8049;BME280;20935;42.660;23.342;2023-07-13T12:31:47;94820.75;;;29.37;62.77
8049;BME280;20935;42.660;23.342;2023-07-13T12:34:50;94809.94;;;29.39;62.69
8049;BME280;20935;42.660;23.342;2023-07-13T12:37:36;94814.19;;;29.40;62.47
8049;BME280;20935;42.660;23.342;2023-07-13T12:40:26;94805.91;;;29.40;62.48
8049;BME280;20935;42.660;23.342;2023-07-13T12:43:14;94798.38;;;29.41;62.82
8049;BME280;20935;42.660;23.342;2023-07-13T12:46:02;94790.84;;;29.41;62.82
8049;BME280;20935;42.660;23.342;2023-07-13T12:48:51;94797.13;;;29.42;63.12
8049;BME280;20935;42.660;23.342;2023-07-13T12:51:38;94797.34;;;29.44;62.68
8049;BME280;20935;42.660;23.342;2023-07-13T12:54:26;94785.56;;;29.43;63.01
8049;BME280;20935;42.660;23.342;2023-07-13T12:57:16;94787.81;;;29.45;63.10
8049;BME280;20935;42.660;23.342;2023-07-13T13:00:03;94794.09;;;29.45;63.04
8049;BME280;20935;42.660;23.342;2023-07-13T13:02:50;94792.59;;;29.44;63.07
8049;BME280;20935;42.660;23.342;2023-07-13T13:05:37;94787.06;;;29.44;63.00
8049;BME280;20935;42.660;23.342;2023-07-13T13:08:22;94791.31;;;29.45;62.99
8049;BME280;20935;42.660;23.342;2023-07-13T13:11:07;94775.50;;;29.46;63.05
8049;BME280;20935;42.660;23.342;2023-07-13T13:13:53;94779.00;;;29.46;63.17
8049;BME280;20935;42.660;23.342;2023-07-13T13:16:46;94774.22;;;29.47;63.00
8049;BME280;20935;42.660;23.342;2023-07-13T13:19:32;94779.75;;;29.47;63.14
8049;BME280;20935;42.660;23.342;2023-07-13T13:22:19;94777.00;;;29.47;63.25
8049;BME280;20935;42.660;23.342;2023-07-13T13:25:06;94773.72;;;29.48;63.33
8049;BME280;20935;42.660;23.342;2023-07-13T13:27:53;94770.22;;;29.48;63.36
8049;BME280;20935;42.660;23.342;2023-07-13T13:30:38;94764.69;;;29.48;63.46
8049;BME280;20935;42.660;23.342;2023-07-13T13:33:24;94765.44;;;29.48;63.41
8049;BME280;20935;42.660;23.342;2023-07-13T13:36:14;94764.19;;;29.49;63.34
8049;BME280;20935;42.660;23.342;2023-07-13T13:39:02;94759.41;;;29.50;63.62
8049;BME280;20935;42.660;23.342;2023-07-13T13:41:49;94762.16;;;29.50;63.28
8049;BME280;20935;42.660;23.342;2023-07-13T13:44:35;94758.88;;;29.51;63.80
8049;BME280;20935;42.660;23.342;2023-07-13T13:47:29;94750.59;;;29.51;63.36
8049;BME280;20935;42.660;23.342;2023-07-13T13:50:16;94755.38;;;29.51;63.87
8049;BME280;20935;42.660;23.342;2023-07-13T13:53:02;94759.63;;;29.52;63.78
8049;BME280;20935;42.660;23.342;2023-07-13T13:55:50;94758.88;;;29.51;63.66
8049;BME280;20935;42.660;23.342;2023-07-13T13:58:36;94750.59;;;29.51;63.87
8049;BME280;20935;42.660;23.342;2023-07-13T14:01:22;94752.59;;;29.51;63.76
8049;BME280;20935;42.660;23.342;2023-07-13T14:04:09;94748.59;;;29.52;63.78
8049;BME280;20935;42.660;23.342;2023-07-13T14:06:59;94751.59;;;29.54;64.10
8049;BME280;20935;42.660;23.342;2023-07-13T14:09:44;94750.84;;;29.53;63.72
8049;BME280;20935;42.660;23.342;2023-07-13T14:12:31;94747.53;;;29.55;63.92
8049;BME280;20935;42.660;23.342;2023-07-13T14:15:21;94746.78;;;29.54;63.99
8049;BME280;20935;42.660;23.342;2023-07-13T14:18:08;94743.53;;;29.56;64.17
8049;BME280;20935;42.660;23.342;2023-07-13T14:20:54;94738.00;;;29.56;64.34
8049;BME280;20935;42.660;23.342;2023-07-13T14:23:39;94748.53;;;29.57;64.24
8049;BME280;20935;42.660;23.342;2023-07-13T14:26:26;94731.22;;;29.57;64.08
8049;BME280;20935;42.660;23.342;2023-07-13T14:29:14;94736.22;;;29.58;64.03
8049;BME280;20935;42.660;23.342;2023-07-13T14:32:02;94727.94;;;29.58;64.00
8049;BME280;20935;42.660;23.342;2023-07-13T14:34:48;94743.22;;;29.59;64.17
8049;BME280;20935;42.660;23.342;2023-07-13T14:37:36;94738.47;;;29.60;64.11
8049;BME280;20935;42.660;23.342;2023-07-13T14:40:25;94732.44;;;29.61;64.22
8049;BME280;20935;42.660;23.342;2023-07-13T14:43:12;94734.66;;;29.63;64.01
8049;BME280;20935;42.660;23.342;2023-07-13T14:45:59;94729.38;;;29.65;64.11
8049;BME280;20935;42.660;23.342;2023-07-13T14:48:45;94725.34;;;29.66;64.02